sensor_id;sensor_type;location;lat;lon;timestamp;pressure;altitude;pressure_sealevel;temperature;humidity
21236;BME280;10775;42.678;26.324;2022-08-04T00:00:29;98631.47;;;25.72;47.92
21236;BME280;10775;42.678;26.324;2022-08-04T00:08:48;98630.03;;;25.68;47.84
21236;BME280;10775;42.678;26.324;2022-08-04T00:11:20;98629.78;;;25.71;47.79
21236;BME280;10775;42.678;26.324;2022-08-04T00:13:56;98631.31;;;25.85;47.45
21236;BME280;10775;42.678;26.324;2022-08-04T00:16:23;98635.47;;;25.77;47.54
21236;BME280;10775;42.678;26.324;2022-08-04T00:18:56;98634.13;;;25.72;47.56
21236;BME280;10775;42.678;26.324;2022-08-04T00:21:23;98631.50;;;25.60;47.77
21236;BME280;10775;42.678;26.324;2022-08-04T00:23:50;98629.59;;;25.51;47.97
21236;BME280;10775;42.678;26.324;2022-08-04T00:26:16;98638.69;;;25.60;47.93
21236;BME280;10775;42.678;26.324;2022-08-04T00:28:43;98635.00;;;25.72;47.62
21236;BME280;10775;42.678;26.324;2022-08-04T00:31:10;98632.50;;;25.59;47.80
21236;BME280;10775;42.678;26.324;2022-08-04T00:33:43;98633.88;;;25.43;48.13
21236;BME280;10775;42.678;26.324;2022-08-04T00:36:11;98631.72;;;25.25;48.75
21236;BME280;10775;42.678;26.324;2022-08-04T00:38:40;98630.63;;;25.39;48.38
21236;BME280;10775;42.678;26.324;2022-08-04T00:41:24;98633.28;;;25.39;48.25
21236;BME280;10775;42.678;26.324;2022-08-04T01:00:22;98633.59;;;25.57;47.69
21236;BME280;10775;42.678;26.324;2022-08-04T01:03:00;98637.19;;;25.35;48.34
21236;BME280;10775;42.678;26.324;2022-08-04T01:11:26;98639.22;;;25.43;48.09
21236;BME280;10775;42.678;26.324;2022-08-04T01:14:20;98637.03;;;25.48;47.97
21236;BME280;10775;42.678;26.324;2022-08-04T01:16:52;98643.47;;;25.45;47.96
21236;BME280;10775;42.678;26.324;2022-08-04T01:22:23;98646.88;;;25.47;48.05
21236;BME280;10775;42.678;26.324;2022-08-04T01:24:58;98635.41;;;25.56;47.53
21236;BME280;10775;42.678;26.324;2022-08-04T01:30:26;98639.44;;;25.62;47.19
21236;BME280;10775;42.678;26.324;2022-08-04T01:33:03;98637.66;;;25.40;47.67
21236;BME280;10775;42.678;26.324;2022-08-04T01:35:37;98640.22;;;25.30;48.04
21236;BME280;10775;42.678;26.324;2022-08-04T01:40:58;98640.72;;;25.24;48.17
21236;BME280;10775;42.678;26.324;2022-08-04T01:43:27;98631.81;;;25.12;48.39
21236;BME280;10775;42.678;26.324;2022-08-04T01:45:58;98631.50;;;25.06;48.76
21236;BME280;10775;42.678;26.324;2022-08-04T01:48:25;98634.53;;;25.01;48.77
21236;BME280;10775;42.678;26.324;2022-08-04T01:50:52;98631.00;;;25.01;48.65
21236;BME280;10775;42.678;26.324;2022-08-04T01:53:22;98631.97;;;24.77;49.69
21236;BME280;10775;42.678;26.324;2022-08-04T01:55:56;98626.50;;;24.79;49.35
21236;BME280;10775;42.678;26.324;2022-08-04T01:58:28;98633.53;;;25.02;48.80
21236;BME280;10775;42.678;26.324;2022-08-04T02:00:55;98631.25;;;25.09;48.53
21236;BME280;10775;42.678;26.324;2022-08-04T02:03:21;98635.25;;;25.03;48.85
21236;BME280;10775;42.678;26.324;2022-08-04T02:05:49;98627.84;;;24.95;48.70
21236;BME280;10775;42.678;26.324;2022-08-04T02:08:40;98632.72;;;24.90;48.82
21236;BME280;10775;42.678;26.324;2022-08-04T02:11:19;98632.56;;;24.92;48.96
21236;BME280;10775;42.678;26.324;2022-08-04T02:16:49;98640.63;;;24.81;49.21
21236;BME280;10775;42.678;26.324;2022-08-04T02:22:11;98639.16;;;24.65;49.53
21236;BME280;10775;42.678;26.324;2022-08-04T02:24:45;98643.16;;;24.71;49.18
21236;BME280;10775;42.678;26.324;2022-08-04T02:27:13;98639.84;;;24.56;49.76
21236;BME280;10775;42.678;26.324;2022-08-04T02:29:58;98639.25;;;24.64;49.47
21236;BME280;10775;42.678;26.324;2022-08-04T02:32:29;98639.75;;;24.69;49.33
21236;BME280;10775;42.678;26.324;2022-08-04T02:35:14;98637.56;;;24.74;49.12
21236;BME280;10775;42.678;26.324;2022-08-04T02:37:46;98635.03;;;24.72;49.15
21236;BME280;10775;42.678;26.324;2022-08-04T02:40:19;98638.16;;;24.55;49.62
21236;BME280;10775;42.678;26.324;2022-08-04T02:42:46;98639.59;;;24.59;49.50
21236;BME280;10775;42.678;26.324;2022-08-04T02:45:12;98634.53;;;24.67;49.30
21236;BME280;10775;42.678;26.324;2022-08-04T02:47:38;98640.38;;;24.72;49.45
21236;BME280;10775;42.678;26.324;2022-08-04T02:50:04;98647.41;;;24.62;49.44
21236;BME280;10775;42.678;26.324;2022-08-04T02:52:33;98637.31;;;24.66;49.37
21236;BME280;10775;42.678;26.324;2022-08-04T02:55:00;98645.72;;;24.72;48.99
21236;BME280;10775;42.678;26.324;2022-08-04T02:57:29;98649.22;;;24.73;49.35
21236;BME280;10775;42.678;26.324;2022-08-04T03:00:10;98649.84;;;24.77;49.19
21236;BME280;10775;42.678;26.324;2022-08-04T03:05:38;98638.66;;;24.83;48.81
21236;BME280;10775;42.678;26.324;2022-08-04T03:08:29;98651.41;;;24.79;49.05
21236;BME280;10775;42.678;26.324;2022-08-04T03:19:33;98650.19;;;24.72;49.12
21236;BME280;10775;42.678;26.324;2022-08-04T03:25:29;98660.03;;;24.14;51.07
21236;BME280;10775;42.678;26.324;2022-08-04T03:53:25;98649.72;;;25.01;48.40
21236;BME280;10775;42.678;26.324;2022-08-04T04:04:29;98661.75;;;24.95;48.45
21236;BME280;10775;42.678;26.324;2022-08-04T04:13:00;98664.16;;;24.87;48.56
21236;BME280;10775;42.678;26.324;2022-08-04T04:29:24;98658.59;;;25.01;48.31
21236;BME280;10775;42.678;26.324;2022-08-04T04:32:17;98656.03;;;24.88;48.47
21236;BME280;10775;42.678;26.324;2022-08-04T04:35:11;98660.28;;;24.91;48.50
21236;BME280;10775;42.678;26.324;2022-08-04T04:45:46;98660.06;;;25.16;47.83
21236;BME280;10775;42.678;26.324;2022-08-04T04:48:35;98661.75;;;25.17;47.76
21236;BME280;10775;42.678;26.324;2022-08-04T04:53:49;98655.41;;;25.07;48.15
21236;BME280;10775;42.678;26.324;2022-08-04T04:59:09;98661.28;;;25.24;47.55
21236;BME280;10775;42.678;26.324;2022-08-04T05:04:44;98657.88;;;25.22;47.54
21236;BME280;10775;42.678;26.324;2022-08-04T05:10:18;98653.97;;;25.37;47.32
21236;BME280;10775;42.678;26.324;2022-08-04T05:15:35;98663.78;;;25.48;46.85
21236;BME280;10775;42.678;26.324;2022-08-04T05:18:03;98665.75;;;25.34;47.33
21236;BME280;10775;42.678;26.324;2022-08-04T05:20:37;98661.66;;;25.19;47.50
21236;BME280;10775;42.678;26.324;2022-08-04T05:23:13;98672.47;;;25.29;47.61
21236;BME280;10775;42.678;26.324;2022-08-04T05:25:56;98663.69;;;25.38;47.23
21236;BME280;10775;42.678;26.324;2022-08-04T05:30:59;98660.13;;;25.49;46.93
21236;BME280;10775;42.678;26.324;2022-08-04T05:33:38;98671.69;;;25.49;46.92
21236;BME280;10775;42.678;26.324;2022-08-04T05:36:10;98669.50;;;25.54;46.78
21236;BME280;10775;42.678;26.324;2022-08-04T05:38:38;98665.56;;;25.58;46.67
21236;BME280;10775;42.678;26.324;2022-08-04T05:41:07;98670.28;;;25.77;46.60
21236;BME280;10775;42.678;26.324;2022-08-04T05:43:36;98672.69;;;25.92;46.01
21236;BME280;10775;42.678;26.324;2022-08-04T05:46:03;98667.78;;;25.97;45.93
21236;BME280;10775;42.678;26.324;2022-08-04T05:48:31;98673.59;;;26.02;45.73
21236;BME280;10775;42.678;26.324;2022-08-04T05:51:02;98671.91;;;26.01;45.83
21236;BME280;10775;42.678;26.324;2022-08-04T05:53:32;98669.56;;;26.08;45.67
21236;BME280;10775;42.678;26.324;2022-08-04T05:56:00;98668.59;;;26.09;45.64
21236;BME280;10775;42.678;26.324;2022-08-04T05:58:29;98672.69;;;26.13;45.84
21236;BME280;10775;42.678;26.324;2022-08-04T06:00:57;98665.53;;;26.13;45.65
21236;BME280;10775;42.678;26.324;2022-08-04T06:03:24;98663.44;;;26.17;45.47
21236;BME280;10775;42.678;26.324;2022-08-04T06:05:51;98660.88;;;26.15;45.65
21236;BME280;10775;42.678;26.324;2022-08-04T06:08:18;98659.91;;;26.16;45.91
21236;BME280;10775;42.678;26.324;2022-08-04T06:10:45;98665.34;;;26.26;45.49
21236;BME280;10775;42.678;26.324;2022-08-04T06:13:16;98655.63;;;26.46;45.08
21236;BME280;10775;42.678;26.324;2022-08-04T06:15:43;98662.88;;;26.86;44.22
21236;BME280;10775;42.678;26.324;2022-08-04T06:18:13;98652.22;;;26.96;43.71
21236;BME280;10775;42.678;26.324;2022-08-04T06:20:41;98656.47;;;26.46;46.97
21236;BME280;10775;42.678;26.324;2022-08-04T06:23:10;98652.31;;;26.42;45.93
21236;BME280;10775;42.678;26.324;2022-08-04T06:25:46;98645.00;;;26.65;45.45
21236;BME280;10775;42.678;26.324;2022-08-04T06:28:13;98659.72;;;26.71;46.75
21236;BME280;10775;42.678;26.324;2022-08-04T06:30:40;98646.72;;;27.38;42.27
21236;BME280;10775;42.678;26.324;2022-08-04T06:33:08;98638.13;;;27.44;44.34
21236;BME280;10775;42.678;26.324;2022-08-04T06:36:05;98643.16;;;26.97;44.80
21236;BME280;10775;42.678;26.324;2022-08-04T06:38:32;98645.31;;;27.03;45.66
21236;BME280;10775;42.678;26.324;2022-08-04T06:41:01;98636.81;;;27.28;44.20
21236;BME280;10775;42.678;26.324;2022-08-04T06:43:28;98645.06;;;27.06;44.93
21236;BME280;10775;42.678;26.324;2022-08-04T06:45:56;98645.75;;;27.39;45.42
21236;BME280;10775;42.678;26.324;2022-08-04T06:48:27;98645.09;;;28.24;40.90
21236;BME280;10775;42.678;26.324;2022-08-04T06:50:53;98649.91;;;28.30;39.91
21236;BME280;10775;42.678;26.324;2022-08-04T06:53:20;98643.47;;;29.81;40.35
21236;BME280;10775;42.678;26.324;2022-08-04T06:55:47;98650.94;;;31.01;36.05
21236;BME280;10775;42.678;26.324;2022-08-04T06:58:14;98647.88;;;30.96;34.94
21236;BME280;10775;42.678;26.324;2022-08-04T07:00:42;98638.84;;;31.13;37.63
21236;BME280;10775;42.678;26.324;2022-08-04T07:03:09;98644.78;;;31.59;36.40
21236;BME280;10775;42.678;26.324;2022-08-04T07:05:35;98644.75;;;31.51;35.31
21236;BME280;10775;42.678;26.324;2022-08-04T07:08:03;98642.16;;;32.25;33.77
21236;BME280;10775;42.678;26.324;2022-08-04T07:10:30;98634.91;;;32.50;33.69
21236;BME280;10775;42.678;26.324;2022-08-04T07:12:57;98637.69;;;31.58;35.72
21236;BME280;10775;42.678;26.324;2022-08-04T07:15:23;98634.28;;;31.14;34.03
21236;BME280;10775;42.678;26.324;2022-08-04T07:17:50;98637.53;;;31.17;36.13
21236;BME280;10775;42.678;26.324;2022-08-04T07:20:16;98628.88;;;31.48;31.62
21236;BME280;10775;42.678;26.324;2022-08-04T07:22:45;98636.69;;;30.83;36.90
21236;BME280;10775;42.678;26.324;2022-08-04T07:25:14;98628.72;;;31.07;30.42
21236;BME280;10775;42.678;26.324;2022-08-04T07:27:41;98632.81;;;30.59;36.84
21236;BME280;10775;42.678;26.324;2022-08-04T07:30:07;98625.34;;;31.05;34.09
21236;BME280;10775;42.678;26.324;2022-08-04T07:32:35;98619.97;;;31.22;36.00
21236;BME280;10775;42.678;26.324;2022-08-04T07:35:02;98613.72;;;31.63;35.50
21236;BME280;10775;42.678;26.324;2022-08-04T07:37:28;98615.81;;;31.94;33.98
21236;BME280;10775;42.678;26.324;2022-08-04T07:39:54;98615.47;;;31.22;36.09
21236;BME280;10775;42.678;26.324;2022-08-04T07:42:20;98615.25;;;32.56;31.95
21236;BME280;10775;42.678;26.324;2022-08-04T07:44:46;98619.63;;;32.74;28.43
21236;BME280;10775;42.678;26.324;2022-08-04T07:47:12;98621.88;;;32.04;29.70
21236;BME280;10775;42.678;26.324;2022-08-04T07:49:40;98617.78;;;31.76;34.24
21236;BME280;10775;42.678;26.324;2022-08-04T07:52:06;98617.47;;;32.44;33.45
21236;BME280;10775;42.678;26.324;2022-08-04T07:54:33;98617.25;;;32.70;35.44
21236;BME280;10775;42.678;26.324;2022-08-04T07:56:59;98611.91;;;33.10;32.92
21236;BME280;10775;42.678;26.324;2022-08-04T07:59:25;98607.63;;;33.78;31.83
21236;BME280;10775;42.678;26.324;2022-08-04T08:01:52;98613.75;;;34.18;31.52
21236;BME280;10775;42.678;26.324;2022-08-04T08:04:18;98614.03;;;34.23;31.18
21236;BME280;10775;42.678;26.324;2022-08-04T08:06:44;98616.91;;;33.52;31.25
21236;BME280;10775;42.678;26.324;2022-08-04T08:09:15;98614.75;;;32.36;32.89
21236;BME280;10775;42.678;26.324;2022-08-04T08:11:43;98615.63;;;33.09;32.05
21236;BME280;10775;42.678;26.324;2022-08-04T08:14:09;98606.13;;;33.13;34.65
21236;BME280;10775;42.678;26.324;2022-08-04T08:16:35;98608.09;;;33.59;31.13
21236;BME280;10775;42.678;26.324;2022-08-04T08:19:02;98607.16;;;32.23;31.25
21236;BME280;10775;42.678;26.324;2022-08-04T08:21:28;98614.06;;;31.52;32.47
21236;BME280;10775;42.678;26.324;2022-08-04T08:23:54;98614.78;;;31.95;31.58
21236;BME280;10775;42.678;26.324;2022-08-04T08:26:20;98609.56;;;32.10;31.22
21236;BME280;10775;42.678;26.324;2022-08-04T08:28:46;98627.16;;;30.70;33.24
21236;BME280;10775;42.678;26.324;2022-08-04T08:31:12;98622.78;;;30.69;36.25
21236;BME280;10775;42.678;26.324;2022-08-04T08:33:38;98618.28;;;30.08;35.27
21236;BME280;10775;42.678;26.324;2022-08-04T08:37:55;98619.97;;;30.27;34.09
21236;BME280;10775;42.678;26.324;2022-08-04T08:46:01;98600.06;;;31.14;32.41
21236;BME280;10775;42.678;26.324;2022-08-04T08:52:29;98611.03;;;30.26;34.12
21236;BME280;10775;42.678;26.324;2022-08-04T08:57:45;98592.97;;;31.13;34.40
21236;BME280;10775;42.678;26.324;2022-08-04T09:00:22;98589.06;;;31.75;32.48
21236;BME280;10775;42.678;26.324;2022-08-04T09:03:19;98589.41;;;31.80;32.14
21236;BME280;10775;42.678;26.324;2022-08-04T09:11:09;98595.22;;;30.31;34.40
21236;BME280;10775;42.678;26.324;2022-08-04T09:14:02;98586.72;;;30.44;35.47
21236;BME280;10775;42.678;26.324;2022-08-04T09:16:48;98592.38;;;30.59;34.78
21236;BME280;10775;42.678;26.324;2022-08-04T09:19:34;98587.38;;;30.38;35.27
21236;BME280;10775;42.678;26.324;2022-08-04T09:27:25;98591.56;;;30.67;33.93
21236;BME280;10775;42.678;26.324;2022-08-04T09:30:07;98572.00;;;31.50;32.60
21236;BME280;10775;42.678;26.324;2022-08-04T09:32:57;98570.63;;;32.60;31.22
21236;BME280;10775;42.678;26.324;2022-08-04T09:35:39;98569.94;;;32.98;31.74
21236;BME280;10775;42.678;26.324;2022-08-04T09:38:18;98569.81;;;31.45;31.14
21236;BME280;10775;42.678;26.324;2022-08-04T09:40:59;98578.88;;;30.59;30.65
21236;BME280;10775;42.678;26.324;2022-08-04T09:46:54;98561.59;;;31.04;32.42
21236;BME280;10775;42.678;26.324;2022-08-04T09:49:30;98579.25;;;31.49;35.32
21236;BME280;10775;42.678;26.324;2022-08-04T09:52:07;98567.91;;;31.37;29.75
21236;BME280;10775;42.678;26.324;2022-08-04T10:00:09;98567.00;;;31.20;30.16
21236;BME280;10775;42.678;26.324;2022-08-04T10:02:38;98551.31;;;30.73;29.81
21236;BME280;10775;42.678;26.324;2022-08-04T10:05:13;98570.59;;;30.26;31.49
21236;BME280;10775;42.678;26.324;2022-08-04T10:07:50;98573.91;;;30.81;28.96
21236;BME280;10775;42.678;26.324;2022-08-04T10:10:31;98588.34;;;30.37;33.00
21236;BME280;10775;42.678;26.324;2022-08-04T10:13:07;98573.91;;;30.81;30.32
21236;BME280;10775;42.678;26.324;2022-08-04T10:18:34;98566.69;;;31.24;29.28
21236;BME280;10775;42.678;26.324;2022-08-04T10:21:10;98572.41;;;31.12;29.60
21236;BME280;10775;42.678;26.324;2022-08-04T10:23:46;98571.31;;;30.63;29.10
21236;BME280;10775;42.678;26.324;2022-08-04T10:29:43;98557.59;;;31.25;29.01
21236;BME280;10775;42.678;26.324;2022-08-04T10:32:30;98564.91;;;31.40;29.08
21236;BME280;10775;42.678;26.324;2022-08-04T10:35:04;98557.03;;;31.13;29.76
21236;BME280;10775;42.678;26.324;2022-08-04T10:40:26;98544.75;;;32.41;28.35
21236;BME280;10775;42.678;26.324;2022-08-04T10:48:40;98543.66;;;31.87;28.84
21236;BME280;10775;42.678;26.324;2022-08-04T10:51:20;98538.09;;;31.63;28.90
21236;BME280;10775;42.678;26.324;2022-08-04T10:53:48;98546.38;;;31.78;27.73
21236;BME280;10775;42.678;26.324;2022-08-04T10:56:31;98545.16;;;31.48;29.12
21236;BME280;10775;42.678;26.324;2022-08-04T10:59:06;98548.31;;;31.35;27.81
21236;BME280;10775;42.678;26.324;2022-08-04T11:01:37;98535.78;;;30.75;29.80
21236;BME280;10775;42.678;26.324;2022-08-04T11:06:51;98532.31;;;30.49;30.57
21236;BME280;10775;42.678;26.324;2022-08-04T11:09:17;98544.22;;;30.72;30.00
21236;BME280;10775;42.678;26.324;2022-08-04T11:11:50;98538.97;;;31.13;30.10
21236;BME280;10775;42.678;26.324;2022-08-04T11:14:52;98534.59;;;30.70;29.66
21236;BME280;10775;42.678;26.324;2022-08-04T11:17:25;98526.63;;;30.26;29.60
21236;BME280;10775;42.678;26.324;2022-08-04T11:20:15;98529.91;;;30.38;29.21
21236;BME280;10775;42.678;26.324;2022-08-04T11:23:00;98532.06;;;30.68;29.56
21236;BME280;10775;42.678;26.324;2022-08-04T11:25:33;98516.22;;;31.16;28.52
21236;BME280;10775;42.678;26.324;2022-08-04T11:31:03;98513.28;;;31.68;29.54
21236;BME280;10775;42.678;26.324;2022-08-04T11:34:02;98513.81;;;30.96;29.67
21236;BME280;10775;42.678;26.324;2022-08-04T11:39:37;98528.22;;;30.71;28.79
21236;BME280;10775;42.678;26.324;2022-08-04T11:42:27;98511.06;;;30.46;30.99
21236;BME280;10775;42.678;26.324;2022-08-04T11:45:03;98501.34;;;30.53;30.73
21236;BME280;10775;42.678;26.324;2022-08-04T11:47:57;98509.13;;;31.07;30.11
21236;BME280;10775;42.678;26.324;2022-08-04T11:50:37;98500.56;;;31.36;29.50
21236;BME280;10775;42.678;26.324;2022-08-04T11:53:07;98505.94;;;31.19;29.43
21236;BME280;10775;42.678;26.324;2022-08-04T11:55:34;98496.56;;;31.48;29.53
21236;BME280;10775;42.678;26.324;2022-08-04T11:58:01;98496.22;;;31.51;29.38
21236;BME280;10775;42.678;26.324;2022-08-04T12:00:30;98496.31;;;31.17;27.47
21236;BME280;10775;42.678;26.324;2022-08-04T12:06:28;98485.22;;;31.86;30.11
21236;BME280;10775;42.678;26.324;2022-08-04T12:14:25;98493.84;;;31.40;29.30
21236;BME280;10775;42.678;26.324;2022-08-04T12:19:48;98484.72;;;31.41;28.70
21236;BME280;10775;42.678;26.324;2022-08-04T12:22:20;98480.16;;;31.99;28.49
21236;BME280;10775;42.678;26.324;2022-08-04T12:25:02;98485.03;;;32.12;28.35
21236;BME280;10775;42.678;26.324;2022-08-04T12:27:41;98476.09;;;32.59;28.78
21236;BME280;10775;42.678;26.324;2022-08-04T12:30:12;98473.69;;;32.24;29.00
21236;BME280;10775;42.678;26.324;2022-08-04T12:32:41;98475.47;;;32.48;28.42
21236;BME280;10775;42.678;26.324;2022-08-04T12:35:19;98476.75;;;32.05;29.29
21236;BME280;10775;42.678;26.324;2022-08-04T12:37:54;98457.16;;;32.03;29.60
21236;BME280;10775;42.678;26.324;2022-08-04T12:40:38;98457.81;;;32.92;30.27
21236;BME280;10775;42.678;26.324;2022-08-04T12:43:11;98454.56;;;32.26;29.47
21236;BME280;10775;42.678;26.324;2022-08-04T12:45:49;98478.50;;;31.65;29.69
21236;BME280;10775;42.678;26.324;2022-08-04T12:48:17;98461.44;;;31.56;29.65
21236;BME280;10775;42.678;26.324;2022-08-04T12:50:53;98478.59;;;31.14;36.91
21236;BME280;10775;42.678;26.324;2022-08-04T12:53:27;98465.28;;;31.21;30.42
21236;BME280;10775;42.678;26.324;2022-08-04T12:55:55;98468.19;;;31.60;31.48
21236;BME280;10775;42.678;26.324;2022-08-04T12:58:24;98461.44;;;31.73;29.53
21236;BME280;10775;42.678;26.324;2022-08-04T13:01:02;98462.56;;;32.03;29.17
21236;BME280;10775;42.678;26.324;2022-08-04T13:03:39;98465.16;;;31.47;30.77
21236;BME280;10775;42.678;26.324;2022-08-04T13:06:06;98473.06;;;31.98;31.34
21236;BME280;10775;42.678;26.324;2022-08-04T13:08:37;98472.03;;;31.82;30.04
21236;BME280;10775;42.678;26.324;2022-08-04T13:11:05;98466.84;;;31.73;31.17
21236;BME280;10775;42.678;26.324;2022-08-04T13:13:35;98466.50;;;31.59;31.88
21236;BME280;10775;42.678;26.324;2022-08-04T13:16:07;98475.78;;;31.65;30.82
21236;BME280;10775;42.678;26.324;2022-08-04T13:18:35;98462.78;;;31.44;31.07
21236;BME280;10775;42.678;26.324;2022-08-04T13:21:16;98461.72;;;31.37;30.70
21236;BME280;10775;42.678;26.324;2022-08-04T13:23:44;98462.28;;;31.40;32.91
21236;BME280;10775;42.678;26.324;2022-08-04T13:26:14;98463.06;;;31.08;31.16
21236;BME280;10775;42.678;26.324;2022-08-04T13:28:43;98463.94;;;31.25;30.82
21236;BME280;10775;42.678;26.324;2022-08-04T13:31:15;98471.88;;;31.59;29.91
21236;BME280;10775;42.678;26.324;2022-08-04T13:33:44;98460.06;;;31.36;30.88
21236;BME280;10775;42.678;26.324;2022-08-04T13:36:12;98462.91;;;31.92;30.34
21236;BME280;10775;42.678;26.324;2022-08-04T13:38:48;98457.72;;;31.66;30.39
21236;BME280;10775;42.678;26.324;2022-08-04T13:41:16;98458.69;;;31.89;30.43
21236;BME280;10775;42.678;26.324;2022-08-04T13:43:46;98466.84;;;31.73;30.59
21236;BME280;10775;42.678;26.324;2022-08-04T13:46:16;98479.84;;;31.61;30.49
21236;BME280;10775;42.678;26.324;2022-08-04T13:48:43;98463.59;;;31.36;31.67
21236;BME280;10775;42.678;26.324;2022-08-04T13:51:10;98465.75;;;31.00;31.59
21236;BME280;10775;42.678;26.324;2022-08-04T13:53:38;98475.19;;;30.96;31.53
21236;BME280;10775;42.678;26.324;2022-08-04T13:56:06;98463.88;;;30.92;31.67
21236;BME280;10775;42.678;26.324;2022-08-04T13:58:40;98471.97;;;30.84;31.68
21236;BME280;10775;42.678;26.324;2022-08-04T14:01:14;98477.72;;;30.97;32.22
21236;BME280;10775;42.678;26.324;2022-08-04T14:03:55;98473.16;;;30.98;31.76
21236;BME280;10775;42.678;26.324;2022-08-04T14:14:25;98469.97;;;31.19;31.40
21236;BME280;10775;42.678;26.324;2022-08-04T14:17:03;98460.34;;;31.08;31.89
21236;BME280;10775;42.678;26.324;2022-08-04T14:27:48;98462.41;;;30.55;33.13
21236;BME280;10775;42.678;26.324;2022-08-04T14:30:34;98458.69;;;30.57;33.84
21236;BME280;10775;42.678;26.324;2022-08-04T14:35:28;98462.25;;;31.32;31.81
21236;BME280;10775;42.678;26.324;2022-08-04T14:37:58;98469.19;;;31.51;31.53
21236;BME280;10775;42.678;26.324;2022-08-04T14:40:31;98451.66;;;31.47;31.46
21236;BME280;10775;42.678;26.324;2022-08-04T14:42:59;98452.28;;;31.82;31.22
21236;BME280;10775;42.678;26.324;2022-08-04T14:45:40;98460.09;;;31.52;31.08
21236;BME280;10775;42.678;26.324;2022-08-04T14:48:16;98463.78;;;31.59;30.93
21236;BME280;10775;42.678;26.324;2022-08-04T14:50:47;98454.34;;;31.39;30.55
21236;BME280;10775;42.678;26.324;2022-08-04T14:53:21;98454.34;;;31.39;30.61
21236;BME280;10775;42.678;26.324;2022-08-04T14:55:52;98454.81;;;31.34;30.94
21236;BME280;10775;42.678;26.324;2022-08-04T14:58:22;98463.78;;;31.35;31.52
21236;BME280;10775;42.678;26.324;2022-08-04T15:00:49;98462.06;;;31.09;31.97
21236;BME280;10775;42.678;26.324;2022-08-04T15:03:17;98467.28;;;31.19;32.12
21236;BME280;10775;42.678;26.324;2022-08-04T15:05:43;98462.56;;;30.96;32.33
21236;BME280;10775;42.678;26.324;2022-08-04T15:08:13;98465.34;;;30.79;32.47
21236;BME280;10775;42.678;26.324;2022-08-04T15:10:40;98471.47;;;30.97;32.75
21236;BME280;10775;42.678;26.324;2022-08-04T15:13:07;98456.00;;;31.24;32.23
21236;BME280;10775;42.678;26.324;2022-08-04T15:15:33;98468.69;;;30.81;32.71
21236;BME280;10775;42.678;26.324;2022-08-04T15:17:59;98469.31;;;30.58;33.90
21236;BME280;10775;42.678;26.324;2022-08-04T15:20:25;98463.59;;;30.61;34.12
21236;BME280;10775;42.678;26.324;2022-08-04T15:22:51;98457.84;;;30.56;33.10
21236;BME280;10775;42.678;26.324;2022-08-04T15:25:17;98454.81;;;30.51;33.52
21236;BME280;10775;42.678;26.324;2022-08-04T15:27:47;98459.47;;;30.41;33.31
21236;BME280;10775;42.678;26.324;2022-08-04T15:30:14;98456.28;;;30.19;33.80
21236;BME280;10775;42.678;26.324;2022-08-04T15:32:46;98460.97;;;30.35;33.77
21236;BME280;10775;42.678;26.324;2022-08-04T15:35:23;98456.44;;;30.36;33.25
21236;BME280;10775;42.678;26.324;2022-08-04T15:40:42;98454.69;;;30.69;33.07
21236;BME280;10775;42.678;26.324;2022-08-04T15:43:31;98458.63;;;30.83;33.10
21236;BME280;10775;42.678;26.324;2022-08-04T15:46:03;98461.59;;;30.63;33.55
21236;BME280;10775;42.678;26.324;2022-08-04T15:48:32;98449.56;;;30.58;34.20
21236;BME280;10775;42.678;26.324;2022-08-04T15:50:59;98460.19;;;30.51;33.78
21236;BME280;10775;42.678;26.324;2022-08-04T15:58:49;98474.94;;;30.30;34.66
21236;BME280;10775;42.678;26.324;2022-08-04T16:01:16;98465.50;;;30.34;34.57
21236;BME280;10775;42.678;26.324;2022-08-04T16:03:44;98459.25;;;30.26;34.30
21236;BME280;10775;42.678;26.324;2022-08-04T16:16:45;98478.94;;;30.26;34.02
21236;BME280;10775;42.678;26.324;2022-08-04T16:19:27;98479.56;;;30.20;34.21
21236;BME280;10775;42.678;26.324;2022-08-04T16:21:57;98475.44;;;30.08;34.18
21236;BME280;10775;42.678;26.324;2022-08-04T16:24:41;98479.09;;;29.99;34.99
21236;BME280;10775;42.678;26.324;2022-08-04T16:27:11;98475.72;;;29.97;34.47
21236;BME280;10775;42.678;26.324;2022-08-04T16:29:44;98470.06;;;30.08;34.01
21236;BME280;10775;42.678;26.324;2022-08-04T16:32:15;98475.44;;;30.08;34.10
21236;BME280;10775;42.678;26.324;2022-08-04T16:35:03;98471.88;;;29.99;34.35
21236;BME280;10775;42.678;26.324;2022-08-04T16:37:30;98475.00;;;29.86;34.46
21236;BME280;10775;42.678;26.324;2022-08-04T16:40:31;98481.75;;;29.90;34.63
21236;BME280;10775;42.678;26.324;2022-08-04T16:48:23;98490.16;;;29.87;35.16
21236;BME280;10775;42.678;26.324;2022-08-04T16:50:58;98489.06;;;29.80;35.07
21236;BME280;10775;42.678;26.324;2022-08-04T16:53:27;98495.94;;;29.75;35.28
21236;BME280;10775;42.678;26.324;2022-08-04T16:55:54;98490.19;;;29.69;35.06
21236;BME280;10775;42.678;26.324;2022-08-04T16:58:29;98488.31;;;29.70;34.63
21236;BME280;10775;42.678;26.324;2022-08-04T17:00:55;98497.63;;;29.58;34.94
21236;BME280;10775;42.678;26.324;2022-08-04T17:03:21;98498.13;;;29.53;34.93
21236;BME280;10775;42.678;26.324;2022-08-04T17:05:47;98496.47;;;29.42;35.16
21236;BME280;10775;42.678;26.324;2022-08-04T17:08:13;98497.09;;;29.36;35.00
21236;BME280;10775;42.678;26.324;2022-08-04T17:10:41;98501.47;;;29.37;35.01
21236;BME280;10775;42.678;26.324;2022-08-04T17:13:20;98501.19;;;29.40;35.62
21236;BME280;10775;42.678;26.324;2022-08-04T17:15:47;98504.88;;;29.39;35.26
21236;BME280;10775;42.678;26.324;2022-08-04T17:18:27;98516.88;;;29.27;35.39
21236;BME280;10775;42.678;26.324;2022-08-04T17:20:56;98512.81;;;29.23;35.60
21236;BME280;10775;42.678;26.324;2022-08-04T17:23:26;98521.34;;;29.18;35.70